Terminal Aerodrome Forecast
Issued by NWS

Home | Current Version | Previous Version | Text Only | Print | Product List | Glossary On
Versions: 1 2 3 4 5 6 7 8 9 10 11 12 13
000
FTUS44 KBMX 092300
TAFTOI
TAF
KTOI 092335Z 1000/1024 20009KT P6SM VCTS SCT035CB BKN040
     FM100300 22003KT P6SM VCSH SCT030 BKN050
     FM100800 00000KT 4SM BR SCT030
     FM101400 29005KT P6SM SCT050 BKN080
     FM101800 29006KT P6SM VCTS SCT050 BKN080CB=

USA.gov is the U.S. government's official web portal to all federal, state and local government web resources and services.